sensor_id;sensor_type;location;lat;lon;timestamp;P1;durP1;ratioP1;P2;durP2;ratioP2
19002;SDS011;9634;51.040;13.794;2023-02-15T00:02:33;57.13;;;22.83;;
19002;SDS011;9634;51.040;13.794;2023-02-15T00:07:37;58.37;;;22.80;;
19002;SDS011;9634;51.040;13.794;2023-02-15T00:12:39;64.07;;;23.50;;
19002;SDS011;9634;51.040;13.794;2023-02-15T00:17:42;58.77;;;22.70;;
19002;SDS011;9634;51.040;13.794;2023-02-15T00:22:45;58.03;;;22.90;;
19002;SDS011;9634;51.040;13.794;2023-02-15T00:27:49;56.07;;;21.60;;
19002;SDS011;9634;51.040;13.794;2023-02-15T00:32:51;60.03;;;21.97;;
19002;SDS011;9634;51.040;13.794;2023-02-15T00:37:55;59.80;;;22.80;;
19002;SDS011;9634;51.040;13.794;2023-02-15T00:42:57;60.43;;;23.40;;
19002;SDS011;9634;51.040;13.794;2023-02-15T00:48:01;67.67;;;24.53;;
19002;SDS011;9634;51.040;13.794;2023-02-15T00:53:04;74.77;;;24.83;;
19002;SDS011;9634;51.040;13.794;2023-02-15T00:58:07;64.50;;;23.67;;
19002;SDS011;9634;51.040;13.794;2023-02-15T01:03:10;65.43;;;24.33;;
19002;SDS011;9634;51.040;13.794;2023-02-15T01:08:14;64.20;;;23.23;;
19002;SDS011;9634;51.040;13.794;2023-02-15T01:13:17;66.60;;;22.90;;
19002;SDS011;9634;51.040;13.794;2023-02-15T01:18:19;64.27;;;23.27;;
19002;SDS011;9634;51.040;13.794;2023-02-15T01:23:24;61.57;;;23.70;;
19002;SDS011;9634;51.040;13.794;2023-02-15T01:28:27;68.93;;;24.33;;
19002;SDS011;9634;51.040;13.794;2023-02-15T01:33:29;67.43;;;24.77;;
19002;SDS011;9634;51.040;13.794;2023-02-15T01:38:34;73.10;;;24.73;;
19002;SDS011;9634;51.040;13.794;2023-02-15T01:43:39;68.47;;;24.57;;
19002;SDS011;9634;51.040;13.794;2023-02-15T01:48:43;58.10;;;22.43;;
19002;SDS011;9634;51.040;13.794;2023-02-15T01:53:50;69.50;;;24.27;;
19002;SDS011;9634;51.040;13.794;2023-02-15T01:58:55;70.97;;;25.07;;
19002;SDS011;9634;51.040;13.794;2023-02-15T02:04:02;65.97;;;22.30;;
19002;SDS011;9634;51.040;13.794;2023-02-15T02:09:12;66.40;;;23.30;;
19002;SDS011;9634;51.040;13.794;2023-02-15T02:14:15;68.67;;;22.97;;
19002;SDS011;9634;51.040;13.794;2023-02-15T02:19:25;61.00;;;22.53;;
19002;SDS011;9634;51.040;13.794;2023-02-15T02:30:51;63.00;;;22.40;;
19002;SDS011;9634;51.040;13.794;2023-02-15T02:36:13;57.80;;;20.37;;
19002;SDS011;9634;51.040;13.794;2023-02-15T02:41:23;66.03;;;21.77;;
19002;SDS011;9634;51.040;13.794;2023-02-15T02:46:36;62.70;;;20.40;;
19002;SDS011;9634;51.040;13.794;2023-02-15T02:51:45;58.17;;;20.80;;
19002;SDS011;9634;51.040;13.794;2023-02-15T02:56:47;56.97;;;20.20;;
19002;SDS011;9634;51.040;13.794;2023-02-15T03:01:54;53.43;;;20.63;;
19002;SDS011;9634;51.040;13.794;2023-02-15T03:07:00;56.83;;;20.07;;
19002;SDS011;9634;51.040;13.794;2023-02-15T03:12:06;53.13;;;19.97;;
19002;SDS011;9634;51.040;13.794;2023-02-15T03:17:13;56.63;;;19.83;;
19002;SDS011;9634;51.040;13.794;2023-02-15T03:22:19;58.40;;;19.63;;
19002;SDS011;9634;51.040;13.794;2023-02-15T03:27:25;50.20;;;17.60;;
19002;SDS011;9634;51.040;13.794;2023-02-15T03:32:35;55.00;;;18.83;;
19002;SDS011;9634;51.040;13.794;2023-02-15T03:37:43;50.77;;;18.17;;
19002;SDS011;9634;51.040;13.794;2023-02-15T03:42:53;45.90;;;17.17;;
19002;SDS011;9634;51.040;13.794;2023-02-15T03:48:09;49.97;;;18.53;;
19002;SDS011;9634;51.040;13.794;2023-02-15T03:53:14;49.23;;;16.53;;
19002;SDS011;9634;51.040;13.794;2023-02-15T03:58:20;46.13;;;16.47;;
19002;SDS011;9634;51.040;13.794;2023-02-15T04:03:41;43.07;;;16.03;;
19002;SDS011;9634;51.040;13.794;2023-02-15T04:08:48;46.83;;;16.57;;
19002;SDS011;9634;51.040;13.794;2023-02-15T04:14:08;46.83;;;15.63;;
19002;SDS011;9634;51.040;13.794;2023-02-15T04:19:24;48.23;;;16.90;;
19002;SDS011;9634;51.040;13.794;2023-02-15T04:24:45;41.60;;;15.97;;
19002;SDS011;9634;51.040;13.794;2023-02-15T04:30:05;40.40;;;14.83;;
19002;SDS011;9634;51.040;13.794;2023-02-15T04:35:09;38.03;;;14.70;;
19002;SDS011;9634;51.040;13.794;2023-02-15T04:40:14;44.20;;;16.10;;
19002;SDS011;9634;51.040;13.794;2023-02-15T04:45:17;43.07;;;15.07;;
19002;SDS011;9634;51.040;13.794;2023-02-15T04:50:19;44.07;;;16.53;;
19002;SDS011;9634;51.040;13.794;2023-02-15T04:55:23;36.57;;;15.40;;
19002;SDS011;9634;51.040;13.794;2023-02-15T05:00:26;42.87;;;15.40;;
19002;SDS011;9634;51.040;13.794;2023-02-15T05:05:29;37.80;;;14.03;;
19002;SDS011;9634;51.040;13.794;2023-02-15T05:10:33;44.03;;;16.60;;
19002;SDS011;9634;51.040;13.794;2023-02-15T05:15:35;41.50;;;15.20;;
19002;SDS011;9634;51.040;13.794;2023-02-15T05:20:37;43.70;;;15.50;;
19002;SDS011;9634;51.040;13.794;2023-02-15T05:25:45;40.97;;;14.90;;
19002;SDS011;9634;51.040;13.794;2023-02-15T05:31:10;41.43;;;15.60;;
19002;SDS011;9634;51.040;13.794;2023-02-15T05:36:14;41.03;;;15.47;;
19002;SDS011;9634;51.040;13.794;2023-02-15T05:41:17;38.07;;;13.77;;
19002;SDS011;9634;51.040;13.794;2023-02-15T05:46:20;37.07;;;13.77;;
19002;SDS011;9634;51.040;13.794;2023-02-15T05:51:22;39.43;;;14.63;;
19002;SDS011;9634;51.040;13.794;2023-02-15T05:56:25;37.93;;;14.70;;
19002;SDS011;9634;51.040;13.794;2023-02-15T06:01:28;41.00;;;13.83;;
19002;SDS011;9634;51.040;13.794;2023-02-15T06:06:30;38.10;;;13.77;;
19002;SDS011;9634;51.040;13.794;2023-02-15T06:11:33;39.20;;;13.93;;
19002;SDS011;9634;51.040;13.794;2023-02-15T06:16:36;35.80;;;13.23;;
19002;SDS011;9634;51.040;13.794;2023-02-15T06:21:38;37.57;;;14.17;;
19002;SDS011;9634;51.040;13.794;2023-02-15T06:26:41;43.47;;;14.73;;
19002;SDS011;9634;51.040;13.794;2023-02-15T06:31:44;36.60;;;13.47;;
19002;SDS011;9634;51.040;13.794;2023-02-15T06:36:46;33.87;;;12.40;;
19002;SDS011;9634;51.040;13.794;2023-02-15T06:41:49;36.53;;;13.77;;
19002;SDS011;9634;51.040;13.794;2023-02-15T06:46:52;36.17;;;14.43;;
19002;SDS011;9634;51.040;13.794;2023-02-15T06:51:54;32.53;;;13.37;;
19002;SDS011;9634;51.040;13.794;2023-02-15T06:56:57;29.73;;;12.07;;
19002;SDS011;9634;51.040;13.794;2023-02-15T07:02:00;28.60;;;11.83;;
19002;SDS011;9634;51.040;13.794;2023-02-15T07:07:02;29.40;;;12.30;;
19002;SDS011;9634;51.040;13.794;2023-02-15T07:12:06;28.10;;;10.73;;
19002;SDS011;9634;51.040;13.794;2023-02-15T07:17:26;22.70;;;9.90;;
19002;SDS011;9634;51.040;13.794;2023-02-15T07:22:30;28.20;;;10.60;;
19002;SDS011;9634;51.040;13.794;2023-02-15T07:27:35;23.83;;;10.53;;
19002;SDS011;9634;51.040;13.794;2023-02-15T07:32:38;24.63;;;10.70;;
19002;SDS011;9634;51.040;13.794;2023-02-15T07:38:00;24.20;;;10.67;;
19002;SDS011;9634;51.040;13.794;2023-02-15T07:43:04;23.30;;;9.10;;
19002;SDS011;9634;51.040;13.794;2023-02-15T07:48:06;21.87;;;9.53;;
19002;SDS011;9634;51.040;13.794;2023-02-15T07:53:08;23.27;;;9.40;;
19002;SDS011;9634;51.040;13.794;2023-02-15T07:58:12;23.10;;;9.57;;
19002;SDS011;9634;51.040;13.794;2023-02-15T08:03:14;22.00;;;8.50;;
19002;SDS011;9634;51.040;13.794;2023-02-15T08:08:16;19.90;;;8.80;;
19002;SDS011;9634;51.040;13.794;2023-02-15T08:13:32;17.80;;;8.23;;
19002;SDS011;9634;51.040;13.794;2023-02-15T08:18:34;20.07;;;8.20;;
19002;SDS011;9634;51.040;13.794;2023-02-15T08:23:36;17.47;;;7.80;;
19002;SDS011;9634;51.040;13.794;2023-02-15T08:28:40;15.30;;;7.43;;
19002;SDS011;9634;51.040;13.794;2023-02-15T08:33:43;14.60;;;7.53;;
19002;SDS011;9634;51.040;13.794;2023-02-15T08:38:46;17.60;;;8.73;;
19002;SDS011;9634;51.040;13.794;2023-02-15T08:43:51;18.20;;;7.20;;
19002;SDS011;9634;51.040;13.794;2023-02-15T08:48:55;14.73;;;7.47;;
19002;SDS011;9634;51.040;13.794;2023-02-15T08:53:59;16.73;;;8.07;;
19002;SDS011;9634;51.040;13.794;2023-02-15T08:59:05;17.80;;;7.90;;
19002;SDS011;9634;51.040;13.794;2023-02-15T09:04:09;16.53;;;7.93;;
19002;SDS011;9634;51.040;13.794;2023-02-15T09:09:13;15.77;;;7.70;;
19002;SDS011;9634;51.040;13.794;2023-02-15T09:14:17;16.60;;;8.37;;
19002;SDS011;9634;51.040;13.794;2023-02-15T09:19:22;17.03;;;8.70;;
19002;SDS011;9634;51.040;13.794;2023-02-15T09:24:24;18.33;;;8.27;;
19002;SDS011;9634;51.040;13.794;2023-02-15T09:29:28;21.70;;;10.27;;
19002;SDS011;9634;51.040;13.794;2023-02-15T09:34:30;20.10;;;9.80;;
19002;SDS011;9634;51.040;13.794;2023-02-15T09:39:32;17.90;;;8.90;;
19002;SDS011;9634;51.040;13.794;2023-02-15T09:50:10;18.53;;;9.60;;
19002;SDS011;9634;51.040;13.794;2023-02-15T09:55:32;22.90;;;10.83;;
19002;SDS011;9634;51.040;13.794;2023-02-15T10:00:46;20.53;;;9.97;;
19002;SDS011;9634;51.040;13.794;2023-02-15T10:05:58;21.10;;;10.57;;
19002;SDS011;9634;51.040;13.794;2023-02-15T10:11:11;21.97;;;10.97;;
19002;SDS011;9634;51.040;13.794;2023-02-15T10:16:53;23.83;;;11.97;;
19002;SDS011;9634;51.040;13.794;2023-02-15T10:22:05;27.50;;;12.33;;
19002;SDS011;9634;51.040;13.794;2023-02-15T10:27:19;23.87;;;12.20;;
19002;SDS011;9634;51.040;13.794;2023-02-15T10:32:24;22.43;;;11.53;;
19002;SDS011;9634;51.040;13.794;2023-02-15T10:37:42;20.77;;;11.97;;
19002;SDS011;9634;51.040;13.794;2023-02-15T10:43:03;22.20;;;12.93;;
19002;SDS011;9634;51.040;13.794;2023-02-15T10:48:23;23.47;;;12.73;;
19002;SDS011;9634;51.040;13.794;2023-02-15T10:53:39;21.00;;;11.37;;
19002;SDS011;9634;51.040;13.794;2023-02-15T10:59:08;24.17;;;12.07;;
19002;SDS011;9634;51.040;13.794;2023-02-15T11:09:51;20.57;;;10.43;;
19002;SDS011;9634;51.040;13.794;2023-02-15T11:14:58;20.67;;;11.10;;
19002;SDS011;9634;51.040;13.794;2023-02-15T11:20:08;19.57;;;11.10;;
19002;SDS011;9634;51.040;13.794;2023-02-15T11:25:19;17.63;;;10.60;;
19002;SDS011;9634;51.040;13.794;2023-02-15T11:30:27;19.07;;;11.10;;
19002;SDS011;9634;51.040;13.794;2023-02-15T11:35:47;20.40;;;11.27;;
19002;SDS011;9634;51.040;13.794;2023-02-15T11:40:53;21.77;;;11.23;;
19002;SDS011;9634;51.040;13.794;2023-02-15T11:45:57;22.77;;;11.60;;
19002;SDS011;9634;51.040;13.794;2023-02-15T11:51:01;18.43;;;11.07;;
19002;SDS011;9634;51.040;13.794;2023-02-15T11:56:04;22.33;;;11.63;;
19002;SDS011;9634;51.040;13.794;2023-02-15T12:01:14;21.50;;;12.77;;
19002;SDS011;9634;51.040;13.794;2023-02-15T12:06:25;19.57;;;12.23;;
19002;SDS011;9634;51.040;13.794;2023-02-15T12:11:31;20.47;;;11.70;;
19002;SDS011;9634;51.040;13.794;2023-02-15T12:16:40;17.47;;;11.30;;
19002;SDS011;9634;51.040;13.794;2023-02-15T12:21:48;17.53;;;11.30;;
19002;SDS011;9634;51.040;13.794;2023-02-15T12:26:56;17.63;;;10.57;;
19002;SDS011;9634;51.040;13.794;2023-02-15T12:31:59;19.33;;;11.07;;
19002;SDS011;9634;51.040;13.794;2023-02-15T12:37:07;18.57;;;10.93;;
19002;SDS011;9634;51.040;13.794;2023-02-15T12:42:14;18.63;;;10.87;;
19002;SDS011;9634;51.040;13.794;2023-02-15T12:47:19;19.03;;;10.63;;
19002;SDS011;9634;51.040;13.794;2023-02-15T12:52:25;16.47;;;9.60;;
19002;SDS011;9634;51.040;13.794;2023-02-15T12:57:29;18.07;;;9.93;;
19002;SDS011;9634;51.040;13.794;2023-02-15T13:02:34;18.93;;;10.60;;
19002;SDS011;9634;51.040;13.794;2023-02-15T13:07:46;21.53;;;11.60;;
19002;SDS011;9634;51.040;13.794;2023-02-15T13:12:51;16.77;;;10.00;;
19002;SDS011;9634;51.040;13.794;2023-02-15T13:17:55;17.17;;;10.67;;
19002;SDS011;9634;51.040;13.794;2023-02-15T13:23:01;18.97;;;11.47;;
19002;SDS011;9634;51.040;13.794;2023-02-15T13:28:09;19.90;;;11.63;;
19002;SDS011;9634;51.040;13.794;2023-02-15T13:33:17;20.93;;;12.17;;
19002;SDS011;9634;51.040;13.794;2023-02-15T13:43:53;20.47;;;11.07;;
19002;SDS011;9634;51.040;13.794;2023-02-15T13:49:05;22.33;;;12.57;;
19002;SDS011;9634;51.040;13.794;2023-02-15T13:59:58;20.10;;;12.23;;
19002;SDS011;9634;51.040;13.794;2023-02-15T14:10:53;21.20;;;12.53;;
19002;SDS011;9634;51.040;13.794;2023-02-15T14:16:01;21.70;;;13.53;;
19002;SDS011;9634;51.040;13.794;2023-02-15T14:21:10;21.07;;;13.23;;
19002;SDS011;9634;51.040;13.794;2023-02-15T14:26:21;25.47;;;14.50;;
19002;SDS011;9634;51.040;13.794;2023-02-15T14:31:28;24.63;;;15.03;;
19002;SDS011;9634;51.040;13.794;2023-02-15T14:36:35;24.23;;;14.87;;
19002;SDS011;9634;51.040;13.794;2023-02-15T14:41:39;26.17;;;15.00;;
19002;SDS011;9634;51.040;13.794;2023-02-15T14:46:46;25.17;;;15.80;;
19002;SDS011;9634;51.040;13.794;2023-02-15T14:51:57;29.20;;;16.10;;
19002;SDS011;9634;51.040;13.794;2023-02-15T14:57:25;31.37;;;17.00;;
19002;SDS011;9634;51.040;13.794;2023-02-15T15:02:40;31.80;;;17.50;;
19002;SDS011;9634;51.040;13.794;2023-02-15T15:07:47;34.13;;;17.67;;
19002;SDS011;9634;51.040;13.794;2023-02-15T15:12:52;30.80;;;16.83;;
19002;SDS011;9634;51.040;13.794;2023-02-15T15:17:57;33.40;;;16.83;;
19002;SDS011;9634;51.040;13.794;2023-02-15T15:28:54;34.80;;;17.60;;
19002;SDS011;9634;51.040;13.794;2023-02-15T15:50:39;36.87;;;15.70;;
19002;SDS011;9634;51.040;13.794;2023-02-15T15:55:43;37.83;;;16.70;;
19002;SDS011;9634;51.040;13.794;2023-02-15T16:00:48;39.90;;;17.07;;
19002;SDS011;9634;51.040;13.794;2023-02-15T16:05:55;38.30;;;16.30;;
19002;SDS011;9634;51.040;13.794;2023-02-15T16:11:01;36.57;;;15.47;;
19002;SDS011;9634;51.040;13.794;2023-02-15T16:16:11;39.53;;;17.40;;
19002;SDS011;9634;51.040;13.794;2023-02-15T16:21:18;41.70;;;17.37;;
19002;SDS011;9634;51.040;13.794;2023-02-15T16:26:32;47.53;;;18.27;;
19002;SDS011;9634;51.040;13.794;2023-02-15T16:31:55;40.60;;;16.97;;
19002;SDS011;9634;51.040;13.794;2023-02-15T16:37:15;41.07;;;17.40;;
19002;SDS011;9634;51.040;13.794;2023-02-15T16:42:19;40.47;;;16.57;;
19002;SDS011;9634;51.040;13.794;2023-02-15T16:47:22;41.87;;;17.50;;
19002;SDS011;9634;51.040;13.794;2023-02-15T16:52:29;46.63;;;17.30;;
19002;SDS011;9634;51.040;13.794;2023-02-15T16:57:33;43.67;;;17.13;;
19002;SDS011;9634;51.040;13.794;2023-02-15T17:02:36;47.77;;;17.77;;
19002;SDS011;9634;51.040;13.794;2023-02-15T17:07:40;47.87;;;17.83;;
19002;SDS011;9634;51.040;13.794;2023-02-15T17:12:44;53.60;;;20.00;;
19002;SDS011;9634;51.040;13.794;2023-02-15T17:17:47;52.90;;;19.97;;
19002;SDS011;9634;51.040;13.794;2023-02-15T17:22:50;52.97;;;19.67;;
19002;SDS011;9634;51.040;13.794;2023-02-15T17:27:54;50.57;;;19.00;;
19002;SDS011;9634;51.040;13.794;2023-02-15T17:32:58;48.37;;;18.50;;
19002;SDS011;9634;51.040;13.794;2023-02-15T17:38:05;56.77;;;20.80;;
19002;SDS011;9634;51.040;13.794;2023-02-15T17:43:16;56.47;;;21.33;;
19002;SDS011;9634;51.040;13.794;2023-02-15T17:48:19;51.77;;;19.50;;
19002;SDS011;9634;51.040;13.794;2023-02-15T17:53:25;49.57;;;18.30;;
19002;SDS011;9634;51.040;13.794;2023-02-15T17:58:27;53.67;;;19.53;;
19002;SDS011;9634;51.040;13.794;2023-02-15T18:03:33;52.40;;;19.20;;
19002;SDS011;9634;51.040;13.794;2023-02-15T18:09:00;52.50;;;19.20;;
19002;SDS011;9634;51.040;13.794;2023-02-15T18:14:19;48.63;;;18.50;;
19002;SDS011;9634;51.040;13.794;2023-02-15T18:19:22;49.10;;;19.40;;
19002;SDS011;9634;51.040;13.794;2023-02-15T18:24:28;56.90;;;18.93;;
19002;SDS011;9634;51.040;13.794;2023-02-15T18:29:30;47.60;;;17.87;;
19002;SDS011;9634;51.040;13.794;2023-02-15T18:34:33;54.40;;;19.33;;
19002;SDS011;9634;51.040;13.794;2023-02-15T18:39:40;53.33;;;19.13;;
19002;SDS011;9634;51.040;13.794;2023-02-15T18:44:46;52.80;;;20.07;;
19002;SDS011;9634;51.040;13.794;2023-02-15T18:49:48;45.43;;;16.93;;
19002;SDS011;9634;51.040;13.794;2023-02-15T18:54:53;50.20;;;19.87;;
19002;SDS011;9634;51.040;13.794;2023-02-15T18:59:59;47.47;;;18.67;;
19002;SDS011;9634;51.040;13.794;2023-02-15T19:05:01;51.80;;;19.33;;
19002;SDS011;9634;51.040;13.794;2023-02-15T19:10:05;52.27;;;20.00;;
19002;SDS011;9634;51.040;13.794;2023-02-15T19:15:12;53.23;;;19.17;;
19002;SDS011;9634;51.040;13.794;2023-02-15T19:20:16;52.27;;;19.33;;
19002;SDS011;9634;51.040;13.794;2023-02-15T19:25:21;52.03;;;19.60;;
19002;SDS011;9634;51.040;13.794;2023-02-15T19:30:25;53.27;;;19.40;;
19002;SDS011;9634;51.040;13.794;2023-02-15T19:35:32;53.57;;;20.10;;
19002;SDS011;9634;51.040;13.794;2023-02-15T19:40:37;57.70;;;21.13;;
19002;SDS011;9634;51.040;13.794;2023-02-15T19:45:40;61.38;;;28.10;;
19002;SDS011;9634;51.040;13.794;2023-02-15T19:50:42;53.97;;;21.13;;
19002;SDS011;9634;51.040;13.794;2023-02-15T19:55:48;51.63;;;19.30;;
19002;SDS011;9634;51.040;13.794;2023-02-15T20:00:51;55.67;;;20.60;;
19002;SDS011;9634;51.040;13.794;2023-02-15T20:05:53;46.33;;;18.60;;
19002;SDS011;9634;51.040;13.794;2023-02-15T20:10:57;53.33;;;21.00;;
19002;SDS011;9634;51.040;13.794;2023-02-15T20:15:59;55.43;;;20.47;;
19002;SDS011;9634;51.040;13.794;2023-02-15T20:21:05;56.80;;;20.10;;
19002;SDS011;9634;51.040;13.794;2023-02-15T20:26:16;50.83;;;19.70;;
19002;SDS011;9634;51.040;13.794;2023-02-15T20:31:20;55.20;;;20.73;;
19002;SDS011;9634;51.040;13.794;2023-02-15T20:36:24;54.63;;;19.37;;
19002;SDS011;9634;51.040;13.794;2023-02-15T20:41:28;54.33;;;20.50;;
19002;SDS011;9634;51.040;13.794;2023-02-15T20:46:36;46.90;;;19.43;;
19002;SDS011;9634;51.040;13.794;2023-02-15T20:51:39;48.33;;;17.50;;
19002;SDS011;9634;51.040;13.794;2023-02-15T20:56:45;48.40;;;18.93;;
19002;SDS011;9634;51.040;13.794;2023-02-15T21:01:47;46.60;;;17.60;;
19002;SDS011;9634;51.040;13.794;2023-02-15T21:06:51;49.80;;;19.07;;
19002;SDS011;9634;51.040;13.794;2023-02-15T21:11:55;55.10;;;18.60;;
19002;SDS011;9634;51.040;13.794;2023-02-15T21:17:00;46.27;;;18.60;;
19002;SDS011;9634;51.040;13.794;2023-02-15T21:22:03;53.60;;;19.57;;
19002;SDS011;9634;51.040;13.794;2023-02-15T21:27:08;44.93;;;17.60;;
19002;SDS011;9634;51.040;13.794;2023-02-15T21:32:13;45.30;;;17.37;;
19002;SDS011;9634;51.040;13.794;2023-02-15T21:37:24;47.33;;;18.83;;
19002;SDS011;9634;51.040;13.794;2023-02-15T21:42:32;44.60;;;17.23;;
19002;SDS011;9634;51.040;13.794;2023-02-15T21:47:51;52.13;;;18.83;;
19002;SDS011;9634;51.040;13.794;2023-02-15T21:52:53;50.00;;;19.17;;
19002;SDS011;9634;51.040;13.794;2023-02-15T21:57:58;53.87;;;19.17;;
19002;SDS011;9634;51.040;13.794;2023-02-15T22:03:00;44.03;;;16.80;;
19002;SDS011;9634;51.040;13.794;2023-02-15T22:08:04;49.47;;;17.97;;
19002;SDS011;9634;51.040;13.794;2023-02-15T22:13:14;52.30;;;18.47;;
19002;SDS011;9634;51.040;13.794;2023-02-15T22:18:20;46.53;;;18.13;;
19002;SDS011;9634;51.040;13.794;2023-02-15T22:23:24;44.37;;;17.07;;
19002;SDS011;9634;51.040;13.794;2023-02-15T22:28:29;54.93;;;18.17;;
19002;SDS011;9634;51.040;13.794;2023-02-15T22:33:33;47.43;;;17.50;;
19002;SDS011;9634;51.040;13.794;2023-02-15T22:38:35;47.77;;;17.97;;
19002;SDS011;9634;51.040;13.794;2023-02-15T22:43:39;46.87;;;17.83;;
19002;SDS011;9634;51.040;13.794;2023-02-15T22:48:43;44.90;;;16.33;;
19002;SDS011;9634;51.040;13.794;2023-02-15T22:53:47;53.47;;;17.67;;
19002;SDS011;9634;51.040;13.794;2023-02-15T22:58:52;42.87;;;16.80;;
19002;SDS011;9634;51.040;13.794;2023-02-15T23:03:59;46.17;;;18.57;;
19002;SDS011;9634;51.040;13.794;2023-02-15T23:09:02;46.87;;;16.97;;
19002;SDS011;9634;51.040;13.794;2023-02-15T23:14:08;44.60;;;17.03;;
19002;SDS011;9634;51.040;13.794;2023-02-15T23:19:24;45.57;;;17.10;;
19002;SDS011;9634;51.040;13.794;2023-02-15T23:24:27;44.37;;;17.27;;
19002;SDS011;9634;51.040;13.794;2023-02-15T23:29:35;45.07;;;16.70;;
19002;SDS011;9634;51.040;13.794;2023-02-15T23:34:37;42.87;;;17.10;;
19002;SDS011;9634;51.040;13.794;2023-02-15T23:39:40;43.57;;;16.93;;
19002;SDS011;9634;51.040;13.794;2023-02-15T23:45:01;45.87;;;16.47;;
19002;SDS011;9634;51.040;13.794;2023-02-15T23:50:07;41.40;;;16.70;;
19002;SDS011;9634;51.040;13.794;2023-02-15T23:55:16;43.13;;;17.43;;
